createdAt,value
2023-02-22T00:00:39.989Z,6.4
2023-02-22T00:01:40.127Z,6.3
2023-02-22T00:02:39.987Z,6.3
2023-02-22T00:03:39.993Z,6.3
2023-02-22T00:04:40.010Z,6.2
2023-02-22T00:05:39.987Z,6.2
2023-02-22T00:06:39.992Z,6.1
2023-02-22T00:07:39.991Z,6.1
2023-02-22T00:08:40.004Z,6.1
2023-02-22T00:09:40.011Z,6.1
2023-02-22T00:10:40.005Z,6
2023-02-22T00:11:39.994Z,5.9
2023-02-22T00:12:40.001Z,5.9
2023-02-22T00:13:39.994Z,5.8
2023-02-22T00:14:40.010Z,5.8
2023-02-22T00:15:40.005Z,5.7
2023-02-22T00:16:40.015Z,5.7
2023-02-22T00:17:40.016Z,5.7
2023-02-22T00:18:40.008Z,5.6
2023-02-22T00:19:40.001Z,5.5
2023-02-22T00:20:40.020Z,5.4
2023-02-22T00:21:39.997Z,5.4
2023-02-22T00:22:39.991Z,5.3
2023-02-22T00:23:39.991Z,5.2
2023-02-22T00:24:39.994Z,5.2
2023-02-22T00:25:40.016Z,5.1
2023-02-22T00:26:39.993Z,5.1
2023-02-22T00:27:40.021Z,5
2023-02-22T00:28:39.987Z,5
2023-02-22T00:29:39.991Z,4.9
2023-02-22T00:30:40.048Z,4.8
2023-02-22T00:31:40.093Z,4.8
2023-02-22T00:32:40.078Z,4.8
2023-02-22T00:33:39.995Z,4.8
2023-02-22T00:34:39.990Z,4.7
2023-02-22T00:35:40.003Z,4.7
2023-02-22T00:36:39.994Z,4.7
2023-02-22T00:37:39.994Z,4.6
2023-02-22T00:38:39.997Z,4.6
2023-02-22T00:39:39.994Z,4.5
2023-02-22T00:40:40.010Z,4.5
2023-02-22T00:41:40.018Z,4.5
2023-02-22T00:42:39.985Z,4.4
2023-02-22T00:43:39.990Z,4.4
2023-02-22T00:44:39.983Z,4.4
2023-02-22T00:45:39.998Z,4.4
2023-02-22T00:46:40.101Z,4.3
2023-02-22T00:47:39.982Z,4.3
2023-02-22T00:48:39.990Z,4.2
2023-02-22T00:49:39.987Z,4.2
2023-02-22T00:50:39.996Z,4.1
2023-02-22T00:51:39.989Z,4
2023-02-22T00:52:40.129Z,4
2023-02-22T00:53:40.352Z,3.9
2023-02-22T00:54:40.621Z,3.9
2023-02-22T00:55:40.961Z,3.9
2023-02-22T00:56:40.464Z,3.9
2023-02-22T00:57:39.991Z,3.8
2023-02-22T00:58:39.992Z,3.8
2023-02-22T00:59:40.013Z,3.7
2023-02-22T01:00:39.985Z,3.6
2023-02-22T01:01:40.182Z,3.6
2023-02-22T01:02:40.061Z,3.6
2023-02-22T01:03:39.992Z,3.6
2023-02-22T01:04:40.007Z,3.6
2023-02-22T01:05:39.989Z,3.5
2023-02-22T01:06:40.037Z,3.5
2023-02-22T01:07:39.994Z,3.4
2023-02-22T01:08:39.988Z,3.4
2023-02-22T01:09:40.014Z,3.3
2023-02-22T01:10:39.995Z,3.3
2023-02-22T01:11:39.992Z,3.3
2023-02-22T01:12:39.991Z,3.2
2023-02-22T01:13:40.140Z,3.2
2023-02-22T01:14:40.010Z,3.2
2023-02-22T01:15:40.251Z,3.2
2023-02-22T01:16:40.604Z,3.2
2023-02-22T01:17:40.006Z,3.1
2023-02-22T01:18:40.148Z,3.1
2023-02-22T01:19:40.329Z,3.1
2023-02-22T01:20:40.638Z,3.1
2023-02-22T01:21:40.192Z,3
2023-02-22T01:22:39.987Z,3
2023-02-22T01:23:39.991Z,2.9
2023-02-22T01:24:40.262Z,2.9
2023-02-22T01:25:40.009Z,2.9
2023-02-22T01:26:40.260Z,2.8
2023-02-22T01:27:40.167Z,2.8
2023-02-22T01:28:39.992Z,2.8
2023-02-22T01:29:40.028Z,2.8
2023-02-22T01:30:40.152Z,2.8
2023-02-22T01:31:40.039Z,2.8
2023-02-22T01:32:40.072Z,2.8
2023-02-22T01:33:39.994Z,2.8
2023-02-22T01:34:40.015Z,2.8
2023-02-22T01:35:39.992Z,2.7
2023-02-22T01:36:39.991Z,2.7
2023-02-22T01:37:39.989Z,2.7
2023-02-22T01:38:39.988Z,2.7
2023-02-22T01:39:40.013Z,2.6
2023-02-22T01:40:39.988Z,2.6
2023-02-22T01:41:39.993Z,2.6
2023-02-22T01:42:40.270Z,2.6
2023-02-22T01:43:39.989Z,2.5
2023-02-22T01:44:40.018Z,2.5
2023-02-22T01:45:39.981Z,2.5
2023-02-22T01:46:40.080Z,2.5
2023-02-22T01:47:39.989Z,2.5
2023-02-22T01:48:40.110Z,2.5
2023-02-22T01:49:40.016Z,2.5
2023-02-22T01:50:39.988Z,2.5
2023-02-22T01:51:39.990Z,2.5
2023-02-22T01:52:39.991Z,2.4
2023-02-22T01:53:39.995Z,2.4
2023-02-22T01:54:40.008Z,2.4
2023-02-22T01:55:39.981Z,2.3
2023-02-22T01:56:39.991Z,2.3
2023-02-22T01:57:40.141Z,2.3
2023-02-22T01:58:39.992Z,2.3
2023-02-22T01:59:40.007Z,2.3
2023-02-22T02:00:39.989Z,2.3
2023-02-22T02:01:39.986Z,2.3
2023-02-22T02:02:39.986Z,2.3
2023-02-22T02:03:40.063Z,2.3
2023-02-22T02:04:40.023Z,2.3
2023-02-22T02:05:39.988Z,2.3
2023-02-22T02:06:39.982Z,2.3
2023-02-22T02:07:39.981Z,2.3
2023-02-22T02:08:39.988Z,2.2
2023-02-22T02:09:40.030Z,2.2
2023-02-22T02:10:39.978Z,2.2
2023-02-22T02:11:39.984Z,2.2
2023-02-22T02:12:39.987Z,2.2
2023-02-22T02:13:39.986Z,2.2
2023-02-22T02:14:40.018Z,2.2
2023-02-22T02:15:39.989Z,2.2
2023-02-22T02:16:40.139Z,2.2
2023-02-22T02:17:40.078Z,2.2
2023-02-22T02:18:39.988Z,2.2
2023-02-22T02:19:39.997Z,2.1
2023-02-22T02:20:39.986Z,2.1
2023-02-22T02:21:39.983Z,2.1
2023-02-22T02:22:39.987Z,2.1
2023-02-22T02:23:39.988Z,2.1
2023-02-22T02:24:40.005Z,2.1
2023-02-22T02:25:40.206Z,2.1
2023-02-22T02:26:39.991Z,2.1
2023-02-22T02:27:39.985Z,2.1
2023-02-22T02:28:39.986Z,2
2023-02-22T02:29:40.004Z,2
2023-02-22T02:30:40.009Z,2
2023-02-22T02:31:40.076Z,2
2023-02-22T02:32:40.089Z,2
2023-02-22T02:33:39.981Z,1.9
2023-02-22T02:34:39.997Z,1.9
2023-02-22T02:35:39.990Z,1.9
2023-02-22T02:36:39.990Z,1.9
2023-02-22T02:37:39.981Z,1.8
2023-02-22T02:38:40.092Z,1.8
2023-02-22T02:39:40.002Z,1.8
2023-02-22T02:40:40.007Z,1.8
2023-02-22T02:41:40.006Z,1.8
2023-02-22T02:42:39.979Z,1.8
2023-02-22T02:43:39.985Z,1.8
2023-02-22T02:44:39.993Z,1.8
2023-02-22T02:45:40.012Z,1.8
2023-02-22T02:46:40.020Z,1.8
2023-02-22T02:47:39.982Z,1.8
2023-02-22T02:48:39.998Z,1.8
2023-02-22T02:49:39.988Z,1.8
2023-02-22T02:50:39.984Z,1.8
2023-02-22T02:51:39.983Z,1.8
2023-02-22T02:52:39.987Z,1.8
2023-02-22T02:53:39.989Z,1.8
2023-02-22T02:54:39.986Z,1.8
2023-02-22T02:55:39.988Z,1.8
2023-02-22T02:56:39.985Z,1.8
2023-02-22T02:57:39.993Z,1.8
2023-02-22T02:58:39.997Z,1.8
2023-02-22T02:59:39.986Z,1.8
2023-02-22T03:00:39.993Z,1.8
2023-02-22T03:01:40.006Z,1.8
2023-02-22T03:02:39.982Z,1.8
2023-02-22T03:03:39.983Z,1.8
2023-02-22T03:04:39.987Z,1.8
2023-02-22T03:05:39.983Z,1.8
2023-02-22T03:06:39.985Z,1.8
2023-02-22T03:07:40.008Z,1.8
2023-02-22T03:08:39.989Z,1.8
2023-02-22T03:09:40.021Z,1.8
2023-02-22T03:10:39.984Z,1.8
2023-02-22T03:11:39.984Z,1.7
2023-02-22T03:12:39.984Z,1.7
2023-02-22T03:13:39.989Z,1.7
2023-02-22T03:14:40.004Z,1.7
2023-02-22T03:15:40.071Z,1.6
2023-02-22T03:16:40.267Z,1.6
2023-02-22T03:17:40.080Z,1.6
2023-02-22T03:18:39.984Z,1.6
2023-02-22T03:19:39.989Z,1.6
2023-02-22T03:20:39.989Z,1.5
2023-02-22T03:21:39.991Z,1.5
2023-02-22T03:22:39.986Z,1.5
2023-02-22T03:23:39.990Z,1.5
2023-02-22T03:24:39.995Z,1.5
2023-02-22T03:25:39.997Z,1.5
2023-02-22T03:26:39.995Z,1.4
2023-02-22T03:27:40.062Z,1.4
2023-02-22T03:28:39.990Z,1.4
2023-02-22T03:29:40.005Z,1.4
2023-02-22T03:30:40.055Z,1.4
2023-02-22T03:31:39.988Z,1.4
2023-02-22T03:32:39.982Z,1.4
2023-02-22T03:33:39.987Z,1.3
2023-02-22T03:34:39.987Z,1.3
2023-02-22T03:35:39.987Z,1.2
2023-02-22T03:36:39.988Z,1.2
2023-02-22T03:37:39.989Z,1.2
2023-02-22T03:38:39.990Z,1.1
2023-02-22T03:39:39.997Z,1.1
2023-02-22T03:40:39.992Z,1.1
2023-02-22T03:41:40.007Z,1.1
2023-02-22T03:42:39.993Z,1.1
2023-02-22T03:43:39.990Z,1
2023-02-22T03:44:39.985Z,1
2023-02-22T03:45:39.996Z,1
2023-02-22T03:46:40.202Z,1
2023-02-22T03:47:40.013Z,0.9
2023-02-22T03:48:39.994Z,0.9
2023-02-22T03:49:39.992Z,0.9
2023-02-22T03:50:39.984Z,0.9
2023-02-22T03:51:39.991Z,0.9
2023-02-22T03:52:39.984Z,0.9
2023-02-22T03:53:39.996Z,0.9
2023-02-22T03:54:40.002Z,0.9
2023-02-22T03:55:39.996Z,0.9
2023-02-22T03:56:40.169Z,0.9
2023-02-22T03:57:39.984Z,0.9
2023-02-22T03:58:39.984Z,0.8
2023-02-22T03:59:39.995Z,0.8
2023-02-22T04:00:39.988Z,0.8
2023-02-22T04:01:40.022Z,0.8
2023-02-22T04:02:40.119Z,0.8
2023-02-22T04:03:40.134Z,0.8
2023-02-22T04:04:40.065Z,0.8
2023-02-22T04:05:39.997Z,0.8
2023-02-22T04:06:39.993Z,0.8
2023-02-22T04:07:39.986Z,0.8
2023-02-22T04:08:40.240Z,0.8
2023-02-22T04:09:39.983Z,0.8
2023-02-22T04:10:39.989Z,0.8
2023-02-22T04:11:39.984Z,0.8
2023-02-22T04:12:39.991Z,0.8
2023-02-22T04:13:39.984Z,0.7
2023-02-22T04:14:39.990Z,0.7
2023-02-22T04:15:39.992Z,0.7
2023-02-22T04:16:39.987Z,0.7
2023-02-22T04:17:40.033Z,0.7
2023-02-22T04:18:39.995Z,0.7
2023-02-22T04:19:39.994Z,0.7
2023-02-22T04:20:39.996Z,0.6
2023-02-22T04:21:39.994Z,0.6
2023-02-22T04:22:40.099Z,0.6
2023-02-22T04:23:39.994Z,0.6
2023-02-22T04:24:39.990Z,0.6
2023-02-22T04:25:39.989Z,0.6
2023-02-22T04:26:40.002Z,0.5
2023-02-22T04:27:40.151Z,0.5
2023-02-22T04:28:40.315Z,0.5
2023-02-22T04:29:40.682Z,0.5
2023-02-22T04:30:41.154Z,0.5
2023-02-22T04:31:40.544Z,0.5
2023-02-22T04:32:39.998Z,0.5
2023-02-22T04:33:39.988Z,0.5
2023-02-22T04:34:39.993Z,0.5
2023-02-22T04:35:39.987Z,0.5
2023-02-22T04:36:40.189Z,0.5
2023-02-22T04:37:39.986Z,0.5
2023-02-22T04:38:39.987Z,0.5
2023-02-22T04:39:40.088Z,0.5
2023-02-22T04:40:40.011Z,0.5
2023-02-22T04:41:40.001Z,0.5
2023-02-22T04:42:39.986Z,0.5
2023-02-22T04:43:40.016Z,0.4
2023-02-22T04:44:39.985Z,0.4
2023-02-22T04:45:39.997Z,0.4
2023-02-22T04:46:40.297Z,0.4
2023-02-22T04:47:39.993Z,0.4
2023-02-22T04:48:40.248Z,0.4
2023-02-22T04:49:40.519Z,0.4
2023-02-22T04:50:40.002Z,0.4
2023-02-22T04:51:40.156Z,0.4
2023-02-22T04:52:40.047Z,0.4
2023-02-22T04:53:40.258Z,0.4
2023-02-22T04:54:40.220Z,0.3
2023-02-22T04:55:40.076Z,0.3
2023-02-22T04:56:40.268Z,0.3
2023-02-22T04:57:40.058Z,0.3
2023-02-22T04:58:40.273Z,0.3
2023-02-22T04:59:40.016Z,0.3
2023-02-22T05:00:40.177Z,0.3
2023-02-22T05:01:39.988Z,0.3
2023-02-22T05:02:40.087Z,0.3
2023-02-22T05:03:39.989Z,0.2
2023-02-22T05:04:40.203Z,0.2
2023-02-22T05:05:39.994Z,0.2
2023-02-22T05:06:39.990Z,0.2
2023-02-22T05:07:39.984Z,0.2
2023-02-22T05:08:39.992Z,0.2
2023-02-22T05:09:39.998Z,0.2
2023-02-22T05:10:39.988Z,0.2
2023-02-22T05:11:39.990Z,0.2
2023-02-22T05:12:39.986Z,0.2
2023-02-22T05:13:40.008Z,0.2
2023-02-22T05:14:39.987Z,0.2
2023-02-22T05:15:40.001Z,0.2
2023-02-22T05:16:40.001Z,0.2
2023-02-22T05:17:40.038Z,0.2
2023-02-22T05:18:40.007Z,0.1
2023-02-22T05:19:40.014Z,0.1
2023-02-22T05:20:39.986Z,0.1
2023-02-22T05:21:39.991Z,0.1
2023-02-22T05:22:39.984Z,0.1
2023-02-22T05:23:39.991Z,0.1
2023-02-22T05:24:40.010Z,0.1
2023-02-22T05:25:40.010Z,0.1
2023-02-22T05:26:39.984Z,0.1
2023-02-22T05:27:39.985Z,0.1
2023-02-22T05:28:39.986Z,0.1
2023-02-22T05:29:40.038Z,0.1
2023-02-22T05:30:40.174Z,0.1
2023-02-22T05:31:40.171Z,0.1
2023-02-22T05:32:40.231Z,0.1
2023-02-22T05:33:39.992Z,0.1
2023-02-22T05:34:40.032Z,0.1
2023-02-22T05:35:39.997Z,0.1
2023-02-22T05:36:39.998Z,0.1
2023-02-22T05:37:39.989Z,0.1
2023-02-22T05:38:39.985Z,0.1
2023-02-22T05:39:40.018Z,0.1
2023-02-22T05:40:39.992Z,0.1
2023-02-22T05:41:39.989Z,0
2023-02-22T05:42:39.987Z,0
2023-02-22T05:43:39.992Z,0
2023-02-22T05:44:39.996Z,0
2023-02-22T05:45:39.995Z,0
2023-02-22T05:46:40.119Z,0
2023-02-22T05:47:39.996Z,0
2023-02-22T05:48:39.994Z,0
2023-02-22T05:49:39.992Z,-0.1
2023-02-22T05:50:39.989Z,-0.1
2023-02-22T05:51:40.003Z,-0.1
2023-02-22T05:52:40.005Z,-0.1
2023-02-22T05:53:39.991Z,-0.1
2023-02-22T05:54:39.992Z,-0.1
2023-02-22T05:55:39.992Z,-0.1
2023-02-22T05:56:39.991Z,-0.1
2023-02-22T05:57:39.990Z,-0.1
2023-02-22T05:58:40.001Z,-0.1
2023-02-22T05:59:39.999Z,-0.1
2023-02-22T06:00:39.990Z,-0.1
2023-02-22T06:01:40.210Z,-0.1
2023-02-22T06:02:39.997Z,-0.1
2023-02-22T06:03:40.004Z,-0.1
2023-02-22T06:04:39.989Z,0
2023-02-22T06:05:40.012Z,0
2023-02-22T06:06:39.980Z,0
2023-02-22T06:07:39.989Z,0
2023-02-22T06:08:39.978Z,0
2023-02-22T06:09:39.980Z,0
2023-02-22T06:10:39.984Z,0
2023-02-22T06:11:39.988Z,0.1
2023-02-22T06:12:40.005Z,0.1
2023-02-22T06:13:39.994Z,0.1
2023-02-22T06:14:40.086Z,0.1
2023-02-22T06:15:39.983Z,0.1
2023-02-22T06:16:39.989Z,0.1
2023-02-22T06:17:39.983Z,0.1
2023-02-22T06:18:39.983Z,0.1
2023-02-22T06:19:39.983Z,0.1
2023-02-22T06:20:40.024Z,0.1
2023-02-22T06:21:39.985Z,0.1
2023-02-22T06:22:39.983Z,0.1
2023-02-22T06:23:39.984Z,0.1
2023-02-22T06:24:39.998Z,0
2023-02-22T06:25:39.990Z,0
2023-02-22T06:26:40.026Z,0
2023-02-22T06:27:39.986Z,0
2023-02-22T06:28:40.169Z,0
2023-02-22T06:29:39.984Z,0
2023-02-22T06:30:39.997Z,0
2023-02-22T06:31:40.059Z,0
2023-02-22T06:32:40.012Z,0
2023-02-22T06:33:39.978Z,0
2023-02-22T06:34:40.479Z,0
2023-02-22T06:35:39.987Z,0
2023-02-22T06:36:40.191Z,0
2023-02-22T06:37:40.006Z,0
2023-02-22T06:38:40.256Z,0
2023-02-22T06:39:39.983Z,0
2023-02-22T06:40:39.982Z,0
2023-02-22T06:41:40.088Z,0
2023-02-22T06:42:40.168Z,0
2023-02-22T06:43:39.986Z,0
2023-02-22T06:44:40.203Z,0
2023-02-22T06:45:39.997Z,0
2023-02-22T06:46:40.257Z,0
2023-02-22T06:47:40.510Z,0
2023-02-22T06:48:40.031Z,0
2023-02-22T06:49:40.240Z,0.1
2023-02-22T06:50:39.987Z,0.1
2023-02-22T06:51:39.989Z,0.1
2023-02-22T06:52:39.986Z,0.1
2023-02-22T06:53:39.986Z,0.1
2023-02-22T06:54:39.984Z,0.1
2023-02-22T06:55:39.993Z,0.1
2023-02-22T06:56:40.187Z,0.1
2023-02-22T06:57:39.986Z,0.1
2023-02-22T06:58:40.300Z,0.1
2023-02-22T06:59:39.979Z,0.1
2023-02-22T07:00:40.021Z,0.1
2023-02-22T07:01:39.994Z,0.1
2023-02-22T07:02:39.983Z,0.1
2023-02-22T07:03:40.097Z,0.1
2023-02-22T07:04:42.306Z,0.1
2023-02-22T07:05:40.013Z,0.1
2023-02-22T07:06:39.986Z,0.1
2023-02-22T07:07:40.005Z,0.1
2023-02-22T07:08:39.991Z,0.1
2023-02-22T07:09:40.012Z,0.1
2023-02-22T07:10:40.139Z,0.2
2023-02-22T07:11:39.987Z,0.1
2023-02-22T07:12:39.984Z,0.2
2023-02-22T07:13:39.995Z,0.2
2023-02-22T07:14:39.990Z,0.2
2023-02-22T07:15:40.017Z,0.2
2023-02-22T07:16:40.021Z,0.3
2023-02-22T07:17:39.986Z,0.3
2023-02-22T07:18:39.987Z,0.3
2023-02-22T07:19:39.985Z,0.3
2023-02-22T07:20:39.991Z,0.4
2023-02-22T07:21:39.995Z,0.4
2023-02-22T07:22:40.018Z,0.4
2023-02-22T07:23:39.988Z,0.4
2023-02-22T07:24:39.988Z,0.5
2023-02-22T07:25:40.001Z,0.5
2023-02-22T07:26:40.016Z,0.5
2023-02-22T07:27:39.985Z,0.5
2023-02-22T07:28:39.984Z,0.5
2023-02-22T07:29:39.992Z,0.6
2023-02-22T07:30:40.259Z,0.6
2023-02-22T07:31:39.997Z,0.7
2023-02-22T07:32:40.099Z,0.7
2023-02-22T07:33:40.000Z,0.8
2023-02-22T07:34:40.497Z,0.8
2023-02-22T07:35:40.503Z,0.8
2023-02-22T07:36:40.502Z,0.8
2023-02-22T07:37:40.484Z,0.9
2023-02-22T07:38:40.696Z,0.9
2023-02-22T07:39:40.484Z,1
2023-02-22T07:40:40.484Z,1
2023-02-22T07:41:40.508Z,1.1
2023-02-22T07:42:40.478Z,1.1
2023-02-22T07:43:40.487Z,1.1
2023-02-22T07:44:40.483Z,1.2
2023-02-22T07:45:40.540Z,1.2
2023-02-22T07:46:40.485Z,1.3
2023-02-22T07:47:40.498Z,1.4
2023-02-22T07:48:40.487Z,1.4
2023-02-22T07:49:40.485Z,1.4
2023-02-22T07:50:40.701Z,1.5
2023-02-22T07:51:39.987Z,1.5
2023-02-22T07:52:39.990Z,1.6
2023-02-22T07:53:39.988Z,1.7
2023-02-22T07:54:39.996Z,1.8
2023-02-22T07:55:39.985Z,1.8
2023-02-22T07:56:40.005Z,1.9
2023-02-22T07:57:39.992Z,1.9
2023-02-22T07:58:39.991Z,2
2023-02-22T07:59:39.995Z,2.1
2023-02-22T08:00:39.994Z,2.1
2023-02-22T08:01:39.984Z,2.2
2023-02-22T08:02:40.057Z,2.3
2023-02-22T08:03:40.817Z,2.4
2023-02-22T08:04:41.050Z,2.4
2023-02-22T08:05:39.995Z,2.5
2023-02-22T08:06:40.012Z,2.5
2023-02-22T08:07:39.993Z,2.6
2023-02-22T08:08:39.997Z,2.6
2023-02-22T08:09:39.997Z,2.7
2023-02-22T08:10:39.986Z,2.8
2023-02-22T08:11:40.020Z,2.8
2023-02-22T08:12:39.992Z,2.8
2023-02-22T08:13:39.994Z,2.9
2023-02-22T08:14:39.996Z,2.9
2023-02-22T08:15:39.995Z,3
2023-02-22T08:16:40.098Z,3.1
2023-02-22T08:17:40.004Z,3.2
2023-02-22T08:18:40.111Z,3.2
2023-02-22T08:19:40.013Z,3.2
2023-02-22T08:20:39.995Z,3.3
2023-02-22T08:21:39.993Z,3.4
2023-02-22T08:22:39.988Z,3.5
2023-02-22T08:23:39.987Z,3.5
2023-02-22T08:24:39.994Z,3.6
2023-02-22T08:25:39.994Z,3.6
2023-02-22T08:26:39.987Z,3.6
2023-02-22T08:27:40.045Z,3.7
2023-02-22T08:28:39.989Z,3.7
2023-02-22T08:29:40.002Z,3.8
2023-02-22T08:30:40.500Z,3.9
2023-02-22T08:31:40.260Z,3.9
2023-02-22T08:32:40.017Z,3.9
2023-02-22T08:33:40.132Z,4
2023-02-22T08:34:39.993Z,4.1
2023-02-22T08:35:40.188Z,4.1
2023-02-22T08:36:39.988Z,4.2
2023-02-22T08:37:39.987Z,4.3
2023-02-22T08:38:39.996Z,4.3
2023-02-22T08:39:40.016Z,4.4
2023-02-22T08:40:39.987Z,4.4
2023-02-22T08:41:40.010Z,4.5
2023-02-22T08:42:39.992Z,4.5
2023-02-22T08:43:40.001Z,4.6
2023-02-22T08:44:40.005Z,4.7
2023-02-22T08:45:40.022Z,4.7
2023-02-22T08:46:39.993Z,4.8
2023-02-22T08:47:39.990Z,4.8
2023-02-22T08:48:39.997Z,4.9
2023-02-22T08:49:39.998Z,5
2023-02-22T08:50:39.985Z,5.1
2023-02-22T08:51:39.996Z,5.1
2023-02-22T08:52:39.985Z,5.2
2023-02-22T08:53:39.989Z,5.2
2023-02-22T08:54:40.022Z,5.3
2023-02-22T08:55:39.999Z,5.4
2023-02-22T08:56:39.985Z,5.5
2023-02-22T08:57:40.037Z,5.6
2023-02-22T08:58:39.986Z,5.7
2023-02-22T08:59:39.996Z,5.7
2023-02-22T09:00:40.177Z,5.8
2023-02-22T09:01:40.200Z,5.9
2023-02-22T09:02:39.988Z,6
2023-02-22T09:03:40.046Z,6.1
2023-02-22T09:04:39.979Z,6.1
2023-02-22T09:05:40.047Z,6.2
2023-02-22T09:06:39.984Z,6.3
2023-02-22T09:07:40.144Z,6.4
2023-02-22T09:08:39.983Z,6.5
2023-02-22T09:09:39.993Z,6.6
2023-02-22T09:10:39.989Z,6.6
2023-02-22T09:11:39.989Z,6.6
2023-02-22T09:12:39.998Z,6.7
2023-02-22T09:13:40.241Z,6.8
2023-02-22T09:14:40.500Z,6.9
2023-02-22T09:15:40.040Z,7
2023-02-22T09:16:40.301Z,7.1
2023-02-22T09:17:39.980Z,7.2
2023-02-22T09:18:44.164Z,7.2
2023-02-22T09:19:40.009Z,7.3
2023-02-22T09:20:40.274Z,7.4
2023-02-22T09:21:40.060Z,7.5
2023-02-22T09:22:41.833Z,7.6
2023-02-22T09:23:39.983Z,7.6
2023-02-22T09:24:39.987Z,7.7
2023-02-22T09:25:40.003Z,7.8
2023-02-22T09:26:39.991Z,7.8
2023-02-22T09:27:39.991Z,7.9
2023-02-22T09:28:40.019Z,8
2023-02-22T09:29:40.003Z,8.1
2023-02-22T09:30:40.090Z,8.3
2023-02-22T09:31:40.090Z,8.4
2023-02-22T09:32:40.148Z,8.4
2023-02-22T09:33:39.998Z,8.5
2023-02-22T09:34:39.996Z,8.6
2023-02-22T09:35:39.980Z,8.7
2023-02-22T09:36:40.002Z,8.8
2023-02-22T09:37:40.018Z,9
2023-02-22T09:38:39.998Z,9
2023-02-22T09:39:40.068Z,9.1
2023-02-22T09:40:39.988Z,9.2
2023-02-22T09:41:40.009Z,9.3
2023-02-22T09:42:39.982Z,9.4
2023-02-22T09:43:39.978Z,9.5
2023-02-22T09:44:39.995Z,9.6
2023-02-22T09:45:40.002Z,9.7
2023-02-22T09:46:40.004Z,9.8
2023-02-22T09:47:40.030Z,9.8
2023-02-22T09:48:39.984Z,9.9
2023-02-22T09:49:40.024Z,10
2023-02-22T09:50:39.978Z,10.1
2023-02-22T09:51:39.988Z,10.2
2023-02-22T09:52:39.979Z,10.2
2023-02-22T09:53:39.979Z,10.3
2023-02-22T09:54:40.013Z,10.4
2023-02-22T09:55:39.983Z,10.5
2023-02-22T09:56:39.998Z,10.5
2023-02-22T09:57:40.174Z,10.6
2023-02-22T09:58:41.741Z,10.6
2023-02-22T09:59:40.010Z,10.7
2023-02-22T10:00:40.296Z,10.8
2023-02-22T10:01:39.981Z,10.9
2023-02-22T10:02:40.014Z,11
2023-02-22T10:03:39.998Z,11
2023-02-22T10:04:39.996Z,11.1
2023-02-22T10:05:40.236Z,11.2
2023-02-22T10:06:39.991Z,11.2
2023-02-22T10:07:39.982Z,11.3
2023-02-22T10:08:39.994Z,11.4
2023-02-22T10:09:40.010Z,11.4
2023-02-22T10:10:39.997Z,11.5
2023-02-22T10:11:39.991Z,11.5
2023-02-22T10:12:39.985Z,11.6
2023-02-22T10:13:39.988Z,11.7
2023-02-22T10:14:40.004Z,11.7
2023-02-22T10:15:39.981Z,11.7
2023-02-22T10:16:40.025Z,11.7
2023-02-22T10:17:39.988Z,11.8
2023-02-22T10:18:39.996Z,11.8
2023-02-22T10:19:40.011Z,11.9
2023-02-22T10:20:39.989Z,11.9
2023-02-22T10:21:39.994Z,12
2023-02-22T10:22:40.132Z,12
2023-02-22T10:23:39.986Z,12.1
2023-02-22T10:24:40.142Z,12.2
2023-02-22T10:25:40.326Z,12.2
2023-02-22T10:26:39.982Z,12.3
2023-02-22T10:27:39.985Z,12.4
2023-02-22T10:28:39.996Z,12.4
2023-02-22T10:29:40.032Z,12.5
2023-02-22T10:30:40.021Z,12.5
2023-02-22T10:31:40.054Z,12.6
2023-02-22T10:32:40.028Z,12.6
2023-02-22T10:33:40.009Z,12.7
2023-02-22T10:34:39.992Z,12.7
2023-02-22T10:35:39.986Z,12.8
2023-02-22T10:36:40.010Z,12.8
2023-02-22T10:37:40.072Z,12.9
2023-02-22T10:38:39.997Z,12.9
2023-02-22T10:39:40.082Z,13
2023-02-22T10:40:39.998Z,13
2023-02-22T10:41:40.025Z,13
2023-02-22T10:42:39.993Z,13.1
2023-02-22T10:43:40.023Z,13.1
2023-02-22T10:44:39.995Z,13.1
2023-02-22T10:45:40.012Z,13.1
2023-02-22T10:46:39.988Z,13.1
2023-02-22T10:47:39.990Z,13.1
2023-02-22T10:48:39.994Z,13.2
2023-02-22T10:49:40.013Z,13.2
2023-02-22T10:50:39.993Z,13.2
2023-02-22T10:51:40.016Z,13.2
2023-02-22T10:52:40.004Z,13.2
2023-02-22T10:53:40.088Z,13.2
2023-02-22T10:54:40.000Z,13.3
2023-02-22T10:55:40.001Z,13.3
2023-02-22T10:56:39.988Z,13.3
2023-02-22T10:57:39.985Z,13.3
2023-02-22T10:58:39.993Z,13.3
2023-02-22T10:59:39.996Z,13.3
2023-02-22T11:00:40.299Z,13.3
2023-02-22T11:01:40.019Z,13.3
2023-02-22T11:02:39.993Z,13.4
2023-02-22T11:03:40.004Z,13.4
2023-02-22T11:04:40.005Z,13.4
2023-02-22T11:05:40.008Z,13.4
2023-02-22T11:06:39.990Z,13.5
2023-02-22T11:07:39.991Z,13.4
2023-02-22T11:08:40.184Z,13.5
2023-02-22T11:09:39.985Z,13.5
2023-02-22T11:10:40.001Z,13.5
2023-02-22T11:11:39.987Z,13.5
2023-02-22T11:12:39.991Z,13.5
2023-02-22T11:13:39.994Z,13.6
2023-02-22T11:14:39.986Z,13.6
2023-02-22T11:15:39.990Z,13.6
2023-02-22T11:16:40.049Z,13.6
2023-02-22T11:17:39.992Z,13.6
2023-02-22T11:18:40.057Z,13.6
2023-02-22T11:19:39.995Z,13.7
2023-02-22T11:20:39.993Z,13.7
2023-02-22T11:21:39.990Z,13.7
2023-02-22T11:22:39.992Z,13.7
2023-02-22T11:23:39.990Z,13.7
2023-02-22T11:24:48.629Z,13.7
2023-02-22T11:25:40.012Z,13.8
2023-02-22T11:26:39.990Z,13.8
2023-02-22T11:27:39.985Z,13.8
2023-02-22T11:28:39.988Z,13.8
2023-02-22T11:29:39.985Z,13.9
2023-02-22T11:30:40.209Z,13.9
2023-02-22T11:31:40.044Z,13.9
2023-02-22T11:32:39.989Z,13.9
2023-02-22T11:33:39.990Z,13.9
2023-02-22T11:34:39.992Z,14
2023-02-22T11:35:39.987Z,14
2023-02-22T11:36:40.001Z,14
2023-02-22T11:37:40.012Z,14
2023-02-22T11:38:40.334Z,14.1
2023-02-22T11:39:40.643Z,14.1
2023-02-22T11:40:39.993Z,14.1
2023-02-22T11:41:39.990Z,14.1
2023-02-22T11:42:39.988Z,14.2
2023-02-22T11:43:40.009Z,14.2
2023-02-22T11:44:39.986Z,14.2
2023-02-22T11:45:44.137Z,14.2
2023-02-22T11:46:40.041Z,14.2
2023-02-22T11:47:39.983Z,14.3
2023-02-22T11:48:40.005Z,14.3
2023-02-22T11:49:39.988Z,14.3
2023-02-22T11:50:40.087Z,14.3
2023-02-22T11:51:39.998Z,14.4
2023-02-22T11:52:39.984Z,14.4
2023-02-22T11:53:39.995Z,14.4
2023-02-22T11:54:39.990Z,14.4
2023-02-22T11:55:42.977Z,14.4
2023-02-22T11:56:40.589Z,14.4
2023-02-22T11:57:39.985Z,14.4
2023-02-22T11:58:39.982Z,14.4
2023-02-22T11:59:39.992Z,14.4
2023-02-22T12:00:39.990Z,14.4
2023-02-22T12:01:40.001Z,14.4
2023-02-22T12:02:41.617Z,14.4
2023-02-22T12:03:40.012Z,14.4
2023-02-22T12:04:40.268Z,14.4
2023-02-22T12:05:40.013Z,14.4
2023-02-22T12:06:40.022Z,14.4
2023-02-22T12:07:40.170Z,14.5
2023-02-22T12:08:40.051Z,14.5
2023-02-22T12:09:40.257Z,14.5
2023-02-22T12:10:39.987Z,14.5
2023-02-22T12:11:40.270Z,14.6
2023-02-22T12:12:39.982Z,14.6
2023-02-22T12:13:39.979Z,14.6
2023-02-22T12:14:39.981Z,14.6
2023-02-22T12:15:40.033Z,14.7
2023-02-22T12:16:40.009Z,14.7
2023-02-22T12:17:41.751Z,14.7
2023-02-22T12:18:39.993Z,14.8
2023-02-22T12:19:40.093Z,14.8
2023-02-22T12:20:39.984Z,14.8
2023-02-22T12:21:40.017Z,14.8
2023-02-22T12:22:39.983Z,14.9
2023-02-22T12:23:39.979Z,14.9
2023-02-22T12:24:39.992Z,14.9
2023-02-22T12:25:40.032Z,15
2023-02-22T12:26:40.223Z,15
2023-02-22T12:27:39.986Z,15
2023-02-22T12:28:40.042Z,15
2023-02-22T12:29:39.983Z,15
2023-02-22T12:30:40.034Z,15
2023-02-22T12:31:40.108Z,15.1
2023-02-22T12:32:40.002Z,15.1
2023-02-22T12:33:39.994Z,15.1
2023-02-22T12:34:40.021Z,15.1
2023-02-22T12:35:39.983Z,15.1
2023-02-22T12:36:40.004Z,15.2
2023-02-22T12:37:39.986Z,15.2
2023-02-22T12:38:39.986Z,15.2
2023-02-22T12:39:52.050Z,15.2
2023-02-22T12:40:40.002Z,15.2
2023-02-22T12:41:39.994Z,15.3
2023-02-22T12:42:39.987Z,15.3
2023-02-22T12:43:39.983Z,15.3
2023-02-22T12:44:40.224Z,15.3
2023-02-22T12:45:40.058Z,15.3
2023-02-22T12:46:40.304Z,15.3
2023-02-22T12:47:40.541Z,15.3
2023-02-22T12:48:39.989Z,15.3
2023-02-22T12:49:40.733Z,15.3
2023-02-22T12:50:40.253Z,15.3
2023-02-22T12:51:40.010Z,15.3
2023-02-22T12:52:40.265Z,15.3
2023-02-22T12:53:40.014Z,15.3
2023-02-22T12:54:39.994Z,15.3
2023-02-22T12:55:39.990Z,15.3
2023-02-22T12:56:39.985Z,15.3
2023-02-22T12:57:40.040Z,15.3
2023-02-22T12:58:40.016Z,15.3
2023-02-22T12:59:39.998Z,15.4
2023-02-22T13:00:40.048Z,15.4
2023-02-22T13:01:40.032Z,15.4
2023-02-22T13:02:40.193Z,15.4
2023-02-22T13:03:40.016Z,15.4
2023-02-22T13:04:39.992Z,15.5
2023-02-22T13:05:39.986Z,15.5
2023-02-22T13:06:40.003Z,15.5
2023-02-22T13:07:39.985Z,15.4
2023-02-22T13:08:40.021Z,15.5
2023-02-22T13:09:39.995Z,15.5
2023-02-22T13:10:40.031Z,15.4
2023-02-22T13:11:39.996Z,15.4
2023-02-22T13:12:39.992Z,15.4
2023-02-22T13:13:40.007Z,15.4
2023-02-22T13:14:39.996Z,15.4
2023-02-22T13:15:40.003Z,15.4
2023-02-22T13:16:39.997Z,15.4
2023-02-22T13:17:39.988Z,15.4
2023-02-22T13:18:40.039Z,15.4
2023-02-22T13:19:40.012Z,15.3
2023-02-22T13:20:39.990Z,15.4
2023-02-22T13:21:39.991Z,15.4
2023-02-22T13:22:39.990Z,15.4
2023-02-22T13:23:39.986Z,15.4
2023-02-22T13:24:41.597Z,15.4
2023-02-22T13:25:40.003Z,15.4
2023-02-22T13:26:39.990Z,15.4
2023-02-22T13:27:40.180Z,15.4
2023-02-22T13:28:39.993Z,15.4
2023-02-22T13:29:40.003Z,15.4
2023-02-22T13:30:40.144Z,15.4
2023-02-22T13:31:41.123Z,15.4
2023-02-22T13:32:39.992Z,15.4
2023-02-22T13:33:39.990Z,15.4
2023-02-22T13:34:40.001Z,15.4
2023-02-22T13:35:40.004Z,15.4
2023-02-22T13:36:40.001Z,15.4
2023-02-22T13:37:39.988Z,15.4
2023-02-22T13:38:39.982Z,15.4
2023-02-22T13:39:40.012Z,15.4
2023-02-22T13:40:39.991Z,15.4
2023-02-22T13:41:39.985Z,15.4
2023-02-22T13:42:40.950Z,15.4
2023-02-22T13:43:39.985Z,15.4